createdAt,value
2022-11-14T00:00:46.477Z,3.7
2022-11-14T00:02:01.799Z,3.7
2022-11-14T00:03:18.098Z,3.7
2022-11-14T00:04:34.391Z,3.7
2022-11-14T00:05:50.678Z,3.7
2022-11-14T00:07:06.968Z,3.7
2022-11-14T00:08:23.267Z,3.6
2022-11-14T00:09:39.560Z,3.6
2022-11-14T00:10:55.850Z,3.6
2022-11-14T00:12:12.145Z,3.6
2022-11-14T00:13:28.445Z,3.6
2022-11-14T00:14:44.731Z,3.5
2022-11-14T00:16:01.028Z,3.5
2022-11-14T00:17:17.327Z,3.5
2022-11-14T00:18:32.631Z,3.4
2022-11-14T00:19:48.923Z,3.4
2022-11-14T00:21:05.222Z,3.5
2022-11-14T00:22:21.517Z,3.4
2022-11-14T00:23:37.805Z,3.4
2022-11-14T00:24:54.095Z,3.4
2022-11-14T00:26:10.395Z,3.4
2022-11-14T00:27:26.686Z,3.4
2022-11-14T00:28:42.983Z,3.4
2022-11-14T00:29:59.000Z,3.4
2022-11-14T00:31:15.583Z,3.4
2022-11-14T00:32:31.876Z,3.3
2022-11-14T00:33:48.156Z,3.4
2022-11-14T00:35:03.467Z,3.4
2022-11-14T00:36:19.760Z,3.4
2022-11-14T00:37:36.071Z,3.4
2022-11-14T00:38:52.366Z,3.4
2022-11-14T00:40:08.652Z,3.4
2022-11-14T00:41:24.943Z,3.4
2022-11-14T00:42:41.251Z,3.3
2022-11-14T00:43:57.529Z,3.3
2022-11-14T00:45:13.824Z,3.3
2022-11-14T00:46:30.114Z,3.3
2022-11-14T00:47:46.412Z,3.2
2022-11-14T00:49:02.702Z,3.3
2022-11-14T00:50:18.997Z,3.3
2022-11-14T00:51:34.322Z,3.3
2022-11-14T00:52:50.605Z,3.3
2022-11-14T00:54:06.912Z,3.4
2022-11-14T00:55:23.204Z,3.4
2022-11-14T00:56:39.497Z,3.4
2022-11-14T00:57:55.782Z,3.4
2022-11-14T00:59:12.074Z,3.4
2022-11-14T01:00:28.367Z,3.3
2022-11-14T01:01:44.670Z,3.3
2022-11-14T01:03:00.957Z,3.3
2022-11-14T01:04:17.257Z,3.3
2022-11-14T01:05:33.549Z,3.3
2022-11-14T01:06:49.848Z,3.3
2022-11-14T01:08:05.153Z,3.3
2022-11-14T01:09:21.454Z,3.3
2022-11-14T01:10:37.753Z,3.4
2022-11-14T01:11:54.030Z,3.3
2022-11-14T01:13:10.334Z,3.3
2022-11-14T01:14:26.626Z,3.3
2022-11-14T01:15:42.915Z,3.3
2022-11-14T01:16:59.211Z,3.3
2022-11-14T01:18:15.509Z,3.3
2022-11-14T01:19:31.796Z,3.3
2022-11-14T01:20:48.109Z,3.2
2022-11-14T01:22:04.381Z,3.3
2022-11-14T01:23:20.681Z,3.2
2022-11-14T01:24:36.006Z,3.2
2022-11-14T01:25:52.298Z,3.2
2022-11-14T01:27:08.582Z,3.2
2022-11-14T01:28:24.872Z,3.2
2022-11-14T01:29:41.172Z,3.2
2022-11-14T01:30:57.467Z,3.2
2022-11-14T01:32:13.770Z,3.2
2022-11-14T01:33:30.053Z,3.2
2022-11-14T01:34:46.347Z,3.1
2022-11-14T01:36:02.646Z,3.1
2022-11-14T01:37:18.939Z,3
2022-11-14T01:38:35.237Z,3
2022-11-14T01:39:51.517Z,3
2022-11-14T01:41:06.827Z,3
2022-11-14T01:42:23.131Z,3
2022-11-14T01:43:39.417Z,3
2022-11-14T01:44:55.727Z,3
2022-11-14T01:46:12.009Z,3
2022-11-14T01:47:28.305Z,3
2022-11-14T01:48:44.594Z,3
2022-11-14T01:50:00.904Z,3
2022-11-14T01:51:17.187Z,2.9
2022-11-14T01:52:33.487Z,2.9
2022-11-14T01:53:49.767Z,2.9
2022-11-14T01:55:06.073Z,2.9
2022-11-14T01:56:22.359Z,2.9
2022-11-14T01:57:37.675Z,2.9
2022-11-14T01:58:53.982Z,2.9
2022-11-14T02:00:10.264Z,2.8
2022-11-14T02:01:26.554Z,2.9
2022-11-14T02:02:42.856Z,2.9
2022-11-14T02:03:59.140Z,2.8
2022-11-14T02:05:15.442Z,2.8
2022-11-14T02:06:31.728Z,2.8
2022-11-14T02:07:48.026Z,2.8
2022-11-14T02:09:04.319Z,2.8
2022-11-14T02:10:20.616Z,2.8
2022-11-14T02:11:36.922Z,2.8
2022-11-14T02:12:53.211Z,2.8
2022-11-14T02:14:09.494Z,2.7
2022-11-14T02:15:25.784Z,2.8
2022-11-14T02:16:42.077Z,2.8
2022-11-14T02:17:57.394Z,2.8
2022-11-14T02:19:13.692Z,2.8
2022-11-14T02:20:29.992Z,2.8
2022-11-14T02:21:46.272Z,2.8
2022-11-14T02:23:02.564Z,2.7
2022-11-14T02:24:18.876Z,2.7
2022-11-14T02:25:35.166Z,2.7
2022-11-14T02:26:51.468Z,2.7
2022-11-14T02:28:07.747Z,2.7
2022-11-14T02:29:24.043Z,2.7
2022-11-14T02:30:40.330Z,2.7
2022-11-14T02:31:56.629Z,2.7
2022-11-14T02:33:12.919Z,2.8
2022-11-14T02:34:28.231Z,2.8
2022-11-14T02:35:43.551Z,2.8
2022-11-14T02:36:59.845Z,2.8
2022-11-14T02:38:16.143Z,2.8
2022-11-14T02:39:32.449Z,2.8
2022-11-14T02:40:48.731Z,2.8
2022-11-14T02:42:05.026Z,2.8
2022-11-14T02:43:21.317Z,2.8
2022-11-14T02:44:37.614Z,2.8
2022-11-14T02:45:53.903Z,2.8
2022-11-14T02:47:10.205Z,2.9
2022-11-14T02:48:26.497Z,2.9
2022-11-14T02:49:42.792Z,2.9
2022-11-14T02:50:59.095Z,2.9
2022-11-14T02:52:14.390Z,2.8
2022-11-14T02:53:30.691Z,2.8
2022-11-14T02:54:46.975Z,2.8
2022-11-14T02:56:03.269Z,2.8
2022-11-14T02:57:19.572Z,2.8
2022-11-14T02:58:35.862Z,2.8
2022-11-14T02:59:52.151Z,2.7
2022-11-14T03:01:08.453Z,2.7
2022-11-14T03:02:24.745Z,2.7
2022-11-14T03:03:41.049Z,2.7
2022-11-14T03:04:57.337Z,2.7
2022-11-14T03:06:13.621Z,2.7
2022-11-14T03:07:29.916Z,2.7
2022-11-14T03:08:45.235Z,2.7
2022-11-14T03:10:01.523Z,2.6
2022-11-14T03:11:17.812Z,2.7
2022-11-14T03:12:34.110Z,2.6
2022-11-14T03:13:50.416Z,2.7
2022-11-14T03:15:06.701Z,2.6
2022-11-14T03:16:22.993Z,2.6
2022-11-14T03:17:39.297Z,2.6
2022-11-14T03:18:55.575Z,2.6
2022-11-14T03:20:11.885Z,2.6
2022-11-14T03:21:28.164Z,2.7
2022-11-14T03:22:44.472Z,2.7
2022-11-14T03:24:00.762Z,2.7
2022-11-14T03:25:16.069Z,2.6
2022-11-14T03:26:32.363Z,2.6
2022-11-14T03:27:48.661Z,2.6
2022-11-14T03:29:04.959Z,2.6
2022-11-14T03:30:21.260Z,2.6
2022-11-14T03:31:37.537Z,2.6
2022-11-14T03:32:53.831Z,2.6
2022-11-14T03:34:10.132Z,2.6
2022-11-14T03:35:26.421Z,2.6
2022-11-14T03:36:42.719Z,2.6
2022-11-14T03:37:59.010Z,2.6
2022-11-14T03:39:15.299Z,2.7
2022-11-14T03:40:31.598Z,2.7
2022-11-14T03:41:46.904Z,2.7
2022-11-14T03:43:03.219Z,2.7
2022-11-14T03:44:19.499Z,2.7
2022-11-14T03:45:35.788Z,2.7
2022-11-14T03:46:52.099Z,2.7
2022-11-14T03:48:08.390Z,2.7
2022-11-14T03:49:24.667Z,2.8
2022-11-14T03:50:40.966Z,2.8
2022-11-14T03:51:57.261Z,2.8
2022-11-14T03:53:13.553Z,2.8
2022-11-14T03:54:29.854Z,2.8
2022-11-14T03:55:46.153Z,2.8
2022-11-14T03:57:02.436Z,2.8
2022-11-14T03:58:17.748Z,2.8
2022-11-14T03:59:34.042Z,2.7
2022-11-14T04:00:50.331Z,2.7
2022-11-14T04:02:06.633Z,2.7
2022-11-14T04:03:22.926Z,2.8
2022-11-14T04:04:39.222Z,2.7
2022-11-14T04:05:55.521Z,2.7
2022-11-14T04:07:11.808Z,2.7
2022-11-14T04:08:28.100Z,2.6
2022-11-14T04:09:44.403Z,2.6
2022-11-14T04:11:00.686Z,2.7
2022-11-14T04:12:16.986Z,2.7
2022-11-14T04:13:33.285Z,2.7
2022-11-14T04:14:48.587Z,2.7
2022-11-14T04:16:04.893Z,2.7
2022-11-14T04:17:21.000Z,2.7
2022-11-14T04:18:37.482Z,2.8
2022-11-14T04:19:53.771Z,2.9
2022-11-14T04:21:10.060Z,2.9
2022-11-14T04:22:26.348Z,3
2022-11-14T04:23:42.642Z,3
2022-11-14T04:24:58.947Z,3.1
2022-11-14T04:26:15.226Z,3.1
2022-11-14T04:27:31.524Z,3.1
2022-11-14T04:28:47.819Z,3.1
2022-11-14T04:30:04.128Z,3.1
2022-11-14T04:31:19.425Z,3.1
2022-11-14T04:32:35.718Z,3.1
2022-11-14T04:33:52.017Z,3.1
2022-11-14T04:35:08.308Z,3.1
2022-11-14T04:36:24.611Z,3
2022-11-14T04:37:40.907Z,3
2022-11-14T04:38:57.208Z,3
2022-11-14T04:40:13.493Z,3
2022-11-14T04:41:29.774Z,3.1
2022-11-14T04:42:46.074Z,3.1
2022-11-14T04:44:02.376Z,3.2
2022-11-14T04:45:18.665Z,3.2
2022-11-14T04:46:34.965Z,3.2
2022-11-14T04:47:50.269Z,3.2
2022-11-14T04:49:06.574Z,3.3
2022-11-14T04:50:22.850Z,3.4
2022-11-14T04:51:39.152Z,3.5
2022-11-14T04:52:55.447Z,3.5
2022-11-14T04:54:11.734Z,3.6
2022-11-14T04:55:28.032Z,3.7
2022-11-14T04:56:44.335Z,3.7
2022-11-14T04:58:00.618Z,3.7
2022-11-14T04:59:16.926Z,3.7
2022-11-14T05:00:33.214Z,3.8
2022-11-14T05:01:49.502Z,3.7
2022-11-14T05:03:05.798Z,3.7
2022-11-14T05:04:21.100Z,3.7
2022-11-14T05:05:37.399Z,3.8
2022-11-14T05:06:53.691Z,3.7
2022-11-14T05:08:09.988Z,3.8
2022-11-14T05:09:26.284Z,3.8
2022-11-14T05:10:42.589Z,3.8
2022-11-14T05:11:58.869Z,3.9
2022-11-14T05:13:15.176Z,3.9
2022-11-14T05:14:31.452Z,3.9
2022-11-14T05:15:47.770Z,3.9
2022-11-14T05:17:04.052Z,4
2022-11-14T05:18:20.343Z,4
2022-11-14T05:19:36.628Z,4.1
2022-11-14T05:20:51.959Z,4
2022-11-14T05:22:08.254Z,4
2022-11-14T05:23:24.549Z,4
2022-11-14T05:24:40.835Z,4
2022-11-14T05:25:57.135Z,4
2022-11-14T05:27:13.426Z,4
2022-11-14T05:28:29.711Z,4
2022-11-14T05:29:46.005Z,4.1
2022-11-14T05:31:02.296Z,4.1
2022-11-14T05:32:18.603Z,4.1
2022-11-14T05:33:34.888Z,4.1
2022-11-14T05:34:51.182Z,4
2022-11-14T05:36:07.476Z,4
2022-11-14T05:37:22.797Z,4
2022-11-14T05:38:39.090Z,4
2022-11-14T05:39:55.373Z,4
2022-11-14T05:41:11.665Z,4
2022-11-14T05:42:27.965Z,4
2022-11-14T05:43:44.250Z,4
2022-11-14T05:45:00.549Z,4
2022-11-14T05:46:16.844Z,4
2022-11-14T05:47:33.089Z,4
2022-11-14T05:48:49.345Z,4
2022-11-14T05:50:05.590Z,4
2022-11-14T05:51:21.820Z,4
2022-11-14T05:52:38.106Z,4
2022-11-14T05:53:53.382Z,4
2022-11-14T05:55:09.636Z,4
2022-11-14T05:56:25.926Z,4
2022-11-14T05:57:42.209Z,4
2022-11-14T05:58:58.450Z,3.9
2022-11-14T06:00:14.707Z,3.9
2022-11-14T06:01:30.951Z,3.9
2022-11-14T06:02:47.195Z,3.9
2022-11-14T06:04:03.426Z,3.9
2022-11-14T06:05:19.654Z,3.9
2022-11-14T06:06:35.899Z,3.9
2022-11-14T06:07:52.136Z,3.9
2022-11-14T06:09:08.395Z,3.9
2022-11-14T06:10:24.632Z,4
2022-11-14T06:11:39.878Z,3.9
2022-11-14T06:12:56.132Z,3.9
2022-11-14T06:14:12.362Z,3.9
2022-11-14T06:15:28.606Z,3.9
2022-11-14T06:16:44.854Z,3.9
2022-11-14T06:18:01.079Z,3.9
2022-11-14T06:19:17.317Z,3.9
2022-11-14T06:20:33.557Z,3.9
2022-11-14T06:21:49.801Z,3.9
2022-11-14T06:23:06.047Z,3.9
2022-11-14T06:24:22.272Z,3.9
2022-11-14T06:25:38.520Z,3.9
2022-11-14T06:26:54.768Z,3.9
2022-11-14T06:28:10.015Z,3.9
2022-11-14T06:29:26.259Z,4
2022-11-14T06:30:42.492Z,4
2022-11-14T06:33:14.986Z,4
2022-11-14T06:34:31.228Z,4
2022-11-14T06:35:47.448Z,4
2022-11-14T06:37:03.704Z,3.9
2022-11-14T06:38:19.940Z,3.9
2022-11-14T06:39:36.184Z,3.9
2022-11-14T06:40:52.434Z,3.9
2022-11-14T06:42:08.660Z,3.9
2022-11-14T06:43:24.906Z,3.9
2022-11-14T06:44:40.148Z,3.9
2022-11-14T06:45:56.396Z,3.9
2022-11-14T06:47:12.643Z,3.9
2022-11-14T06:48:28.873Z,3.9
2022-11-14T06:49:45.107Z,3.9
2022-11-14T06:51:00.377Z,3.9
2022-11-14T06:52:16.622Z,3.9
2022-11-14T06:53:32.875Z,3.9
2022-11-14T06:54:49.101Z,3.9
2022-11-14T06:56:05.356Z,3.9
2022-11-14T06:57:21.575Z,3.8
2022-11-14T06:58:37.810Z,3.8
2022-11-14T06:59:54.059Z,3.8
2022-11-14T07:01:10.301Z,3.8
2022-11-14T07:02:26.537Z,3.7
2022-11-14T07:03:42.781Z,3.7
2022-11-14T07:04:59.037Z,3.7
2022-11-14T07:06:15.270Z,3.6
2022-11-14T07:07:30.509Z,3.6
2022-11-14T07:08:46.755Z,3.6
2022-11-14T07:10:02.993Z,3.5
2022-11-14T07:11:19.240Z,3.5
2022-11-14T07:12:35.478Z,3.5
2022-11-14T07:13:51.713Z,3.5
2022-11-14T07:15:07.959Z,3.5
2022-11-14T07:16:24.202Z,3.5
2022-11-14T07:17:40.425Z,3.5
2022-11-14T07:18:56.684Z,3.5
2022-11-14T07:20:12.915Z,3.5
2022-11-14T07:21:29.166Z,3.6
2022-11-14T07:22:45.384Z,3.6
2022-11-14T07:24:00.643Z,3.6
2022-11-14T07:25:16.892Z,3.7
2022-11-14T07:26:33.129Z,3.7
2022-11-14T07:27:49.376Z,3.7
2022-11-14T07:29:05.613Z,3.7
2022-11-14T07:30:21.851Z,3.7
2022-11-14T07:31:38.100Z,3.7
2022-11-14T07:32:54.327Z,3.7
2022-11-14T07:34:10.566Z,3.8
2022-11-14T07:35:26.811Z,3.8
2022-11-14T07:36:43.048Z,3.8
2022-11-14T07:37:59.284Z,3.9
2022-11-14T07:39:15.531Z,3.9
2022-11-14T07:40:30.796Z,3.9
2022-11-14T07:41:47.032Z,3.8
2022-11-14T07:43:03.256Z,3.9
2022-11-14T07:44:19.518Z,3.9
2022-11-14T07:45:35.751Z,3.9
2022-11-14T07:46:51.986Z,3.9
2022-11-14T07:48:08.223Z,4
2022-11-14T07:49:24.471Z,4
2022-11-14T07:50:40.708Z,4
2022-11-14T07:51:56.944Z,4.1
2022-11-14T07:53:13.191Z,4.1
2022-11-14T07:54:29.434Z,4.2
2022-11-14T07:55:45.657Z,4.2
2022-11-14T07:57:00.939Z,4.2
2022-11-14T07:58:17.170Z,4.2
2022-11-14T07:59:33.403Z,4.2
2022-11-14T08:00:49.645Z,4.3
2022-11-14T08:02:05.879Z,4.3
2022-11-14T08:03:22.118Z,4.4
2022-11-14T08:04:38.363Z,4.5
2022-11-14T08:05:54.597Z,4.5
2022-11-14T08:07:10.842Z,4.6
2022-11-14T08:08:27.075Z,4.6
2022-11-14T08:09:43.333Z,4.7
2022-11-14T08:10:59.566Z,4.7
2022-11-14T08:12:15.799Z,4.7
2022-11-14T08:13:32.047Z,4.8
2022-11-14T08:14:47.298Z,4.8
2022-11-14T08:16:03.544Z,4.9
2022-11-14T08:17:19.766Z,4.9
2022-11-14T08:18:36.006Z,5
2022-11-14T08:19:52.260Z,5.1
2022-11-14T08:21:08.482Z,5.1
2022-11-14T08:22:24.730Z,5.2
2022-11-14T08:23:40.978Z,5.3
2022-11-14T08:24:57.208Z,5.4
2022-11-14T08:26:13.465Z,5.5
2022-11-14T08:27:29.689Z,5.5
2022-11-14T08:28:45.943Z,5.6
2022-11-14T08:30:02.167Z,5.6
2022-11-14T08:31:18.412Z,5.6
2022-11-14T08:32:33.685Z,5.6
2022-11-14T08:33:49.897Z,5.7
2022-11-14T08:35:06.137Z,5.7
2022-11-14T08:36:22.396Z,5.9
2022-11-14T08:37:38.631Z,5.9
2022-11-14T08:38:54.863Z,5.9
2022-11-14T08:40:11.103Z,6
2022-11-14T08:41:27.354Z,6
2022-11-14T08:42:43.584Z,6.1
2022-11-14T08:43:59.816Z,6.1
2022-11-14T08:45:16.080Z,6.1
2022-11-14T08:46:32.310Z,6.1
2022-11-14T08:47:48.550Z,6.1
2022-11-14T08:49:03.802Z,6.2
2022-11-14T08:50:20.046Z,6.2
2022-11-14T08:51:36.269Z,6.2
2022-11-14T08:52:52.513Z,6.3
2022-11-14T08:54:08.753Z,6.4
2022-11-14T08:55:25.003Z,6.4
2022-11-14T08:56:41.245Z,6.5
2022-11-14T08:57:57.481Z,6.5
2022-11-14T08:59:13.717Z,6.5
2022-11-14T09:00:29.958Z,6.6
2022-11-14T09:01:46.189Z,6.6
2022-11-14T09:03:02.437Z,6.6
2022-11-14T09:04:18.676Z,6.6
2022-11-14T09:05:33.930Z,6.6
2022-11-14T09:06:50.162Z,6.7
2022-11-14T09:08:06.415Z,6.7
2022-11-14T09:09:22.656Z,6.7
2022-11-14T09:10:38.903Z,6.7
2022-11-14T09:11:55.128Z,6.8
2022-11-14T09:13:11.390Z,6.8
2022-11-14T09:14:27.616Z,6.9
2022-11-14T09:15:43.853Z,6.9
2022-11-14T09:17:00.087Z,6.9
2022-11-14T09:18:16.334Z,6.9
2022-11-14T09:19:32.567Z,6.9
2022-11-14T09:20:48.800Z,6.9
2022-11-14T09:22:04.065Z,6.9
2022-11-14T09:23:20.321Z,7
2022-11-14T09:24:36.546Z,7
2022-11-14T09:25:52.802Z,7
2022-11-14T09:27:09.032Z,7.1
2022-11-14T09:28:25.262Z,7.2
2022-11-14T09:29:41.507Z,7.2
2022-11-14T09:30:57.746Z,7.2
2022-11-14T09:32:13.981Z,7.3
2022-11-14T09:33:30.215Z,7.3
2022-11-14T09:34:46.472Z,7.3
2022-11-14T09:36:02.703Z,7.3
2022-11-14T09:37:18.935Z,7.4
2022-11-14T09:38:34.215Z,7.4
2022-11-14T09:39:50.431Z,7.4
2022-11-14T09:41:06.671Z,7.4
2022-11-14T09:42:22.930Z,7.5
2022-11-14T09:43:39.159Z,7.6
2022-11-14T09:44:55.398Z,7.6
2022-11-14T09:46:11.645Z,7.6
2022-11-14T09:47:27.886Z,7.7
2022-11-14T09:48:44.122Z,7.7
2022-11-14T09:50:00.357Z,7.7
2022-11-14T09:51:16.597Z,7.7
2022-11-14T09:52:32.850Z,7.7
2022-11-14T09:53:49.065Z,7.8
2022-11-14T09:55:04.343Z,7.7
2022-11-14T09:56:20.569Z,7.7
2022-11-14T09:57:36.811Z,7.8
2022-11-14T09:58:53.056Z,7.8
2022-11-14T10:00:09.297Z,7.9
2022-11-14T10:01:25.531Z,7.9
2022-11-14T10:02:41.765Z,8
2022-11-14T10:03:58.012Z,8.1
2022-11-14T10:05:14.252Z,8
2022-11-14T10:06:30.497Z,8
2022-11-14T10:07:46.742Z,8
2022-11-14T10:09:02.954Z,8.1
2022-11-14T10:10:19.206Z,8.1
2022-11-14T10:11:34.468Z,8.1
2022-11-14T10:12:50.691Z,8.2
2022-11-14T10:14:06.952Z,8.2
2022-11-14T10:15:23.196Z,8.3
2022-11-14T10:16:39.421Z,8.4
2022-11-14T10:17:55.671Z,8.4
2022-11-14T10:19:11.900Z,8.5
2022-11-14T10:20:28.136Z,8.5
2022-11-14T10:21:44.394Z,8.5
2022-11-14T10:23:00.620Z,8.6
2022-11-14T10:24:16.857Z,8.5
2022-11-14T10:25:33.093Z,8.6
2022-11-14T10:26:49.341Z,8.6
2022-11-14T10:28:04.588Z,8.6
2022-11-14T10:29:20.820Z,8.6
2022-11-14T10:30:37.079Z,8.6
2022-11-14T10:31:53.313Z,8.6
2022-11-14T10:33:09.545Z,8.7
2022-11-14T10:34:25.787Z,8.8
2022-11-14T10:35:42.030Z,8.9
2022-11-14T10:36:58.264Z,8.9
2022-11-14T10:38:14.505Z,8.9
2022-11-14T10:39:30.760Z,8.9
2022-11-14T10:40:46.982Z,8.9
2022-11-14T10:42:03.223Z,9
2022-11-14T10:43:19.454Z,9
2022-11-14T10:44:34.716Z,9.1
2022-11-14T10:45:50.965Z,9.1
2022-11-14T10:47:07.208Z,9.2
2022-11-14T10:48:23.445Z,9.2
2022-11-14T10:49:39.687Z,9.3
2022-11-14T10:50:55.910Z,9.4
2022-11-14T10:52:12.161Z,9.4
2022-11-14T10:53:28.387Z,9.5
2022-11-14T10:54:44.625Z,9.5
2022-11-14T10:56:00.867Z,9.6
2022-11-14T10:57:17.102Z,9.6
2022-11-14T10:58:33.349Z,9.6
2022-11-14T10:59:49.582Z,9.7
2022-11-14T11:01:04.849Z,9.8
2022-11-14T11:02:21.097Z,9.8
2022-11-14T11:03:37.339Z,9.8
2022-11-14T11:04:53.569Z,9.8
2022-11-14T11:06:08.822Z,9.9
2022-11-14T11:07:25.066Z,10
2022-11-14T11:08:41.313Z,10
2022-11-14T11:09:57.544Z,10.1
2022-11-14T11:11:13.785Z,10
2022-11-14T11:12:30.027Z,10
2022-11-14T11:13:46.259Z,10.1
2022-11-14T11:15:02.517Z,10.1
2022-11-14T11:16:18.748Z,10.1
2022-11-14T11:17:34.994Z,10.1
2022-11-14T11:18:51.232Z,10.1
2022-11-14T11:20:07.466Z,10.2
2022-11-14T11:21:23.701Z,10.2
2022-11-14T11:22:38.958Z,10.2
2022-11-14T11:23:55.199Z,10.3
2022-11-14T11:25:11.450Z,10.3
2022-11-14T11:26:27.676Z,10.3
2022-11-14T11:27:43.925Z,10.3
2022-11-14T11:29:00.157Z,10.2
2022-11-14T11:30:16.398Z,10.2
2022-11-14T11:31:32.623Z,10.3
2022-11-14T11:32:48.867Z,10.3
2022-11-14T11:34:05.119Z,10.3
2022-11-14T11:35:21.356Z,10.3
2022-11-14T11:36:37.592Z,10.4
2022-11-14T11:37:53.824Z,10.4
2022-11-14T11:39:09.091Z,10.5
2022-11-14T11:40:25.343Z,10.5
2022-11-14T11:41:41.566Z,10.5
2022-11-14T11:42:57.815Z,10.4
2022-11-14T11:44:14.043Z,10.4
2022-11-14T11:45:30.288Z,10.4
2022-11-14T11:46:46.540Z,10.3
2022-11-14T11:48:02.776Z,10.4
2022-11-14T11:49:19.011Z,10.4
2022-11-14T11:50:35.239Z,10.4
2022-11-14T11:51:51.482Z,10.4
2022-11-14T11:53:07.718Z,10.5
2022-11-14T11:54:23.961Z,10.6
2022-11-14T11:55:39.225Z,10.6
2022-11-14T11:56:55.463Z,10.6
2022-11-14T11:58:11.707Z,10.6
2022-11-14T11:59:27.930Z,10.6
2022-11-14T12:00:44.179Z,10.6
2022-11-14T12:02:00.407Z,10.6
2022-11-14T12:03:16.660Z,10.5
2022-11-14T12:04:32.899Z,10.6
2022-11-14T12:05:49.124Z,10.6
2022-11-14T12:07:05.359Z,10.6
2022-11-14T12:08:21.614Z,10.7
2022-11-14T12:09:37.862Z,10.8
2022-11-14T12:10:54.095Z,10.9
2022-11-14T12:12:09.347Z,11
2022-11-14T12:13:25.583Z,11
2022-11-14T12:14:41.826Z,10.9
2022-11-14T12:15:58.072Z,10.9
2022-11-14T12:17:14.311Z,10.9
2022-11-14T12:18:30.559Z,10.8
2022-11-14T12:19:46.781Z,10.8
2022-11-14T12:21:03.034Z,10.8
2022-11-14T12:22:19.253Z,10.8
2022-11-14T12:23:35.489Z,10.8
2022-11-14T12:24:51.734Z,10.7
2022-11-14T12:26:07.985Z,10.7
2022-11-14T12:27:24.206Z,10.7
2022-11-14T12:28:39.461Z,10.7
2022-11-14T12:29:55.703Z,10.7
2022-11-14T12:31:11.952Z,10.7
2022-11-14T12:32:28.202Z,10.7
2022-11-14T12:33:44.438Z,10.7
2022-11-14T12:35:00.673Z,10.7
2022-11-14T12:36:16.906Z,10.7
2022-11-14T12:37:33.164Z,10.7
2022-11-14T12:38:49.376Z,10.8
2022-11-14T12:40:05.617Z,10.8
2022-11-14T12:41:21.876Z,10.8
2022-11-14T12:42:38.105Z,10.7
2022-11-14T12:43:54.337Z,10.8
2022-11-14T12:45:09.618Z,10.8
2022-11-14T12:46:25.852Z,10.9
2022-11-14T12:47:42.071Z,10.9
2022-11-14T12:48:58.318Z,10.9
2022-11-14T12:50:14.565Z,10.9
2022-11-14T12:51:30.814Z,10.9
2022-11-14T12:52:47.033Z,10.9
2022-11-14T12:54:03.275Z,10.9
2022-11-14T12:55:19.513Z,10.8
2022-11-14T12:56:35.749Z,10.8
2022-11-14T12:57:51.999Z,10.8
2022-11-14T12:59:08.240Z,10.8
2022-11-14T13:00:24.482Z,10.8
2022-11-14T13:01:39.741Z,10.8
2022-11-14T13:02:55.983Z,10.8
2022-11-14T13:04:12.204Z,10.8
2022-11-14T13:05:28.462Z,10.9
2022-11-14T13:06:44.693Z,10.9
2022-11-14T13:08:00.921Z,10.9
2022-11-14T13:09:17.174Z,10.9
2022-11-14T13:10:33.408Z,10.9
2022-11-14T13:11:49.647Z,10.9
2022-11-14T13:13:05.875Z,10.9
2022-11-14T13:14:22.134Z,10.9
2022-11-14T13:15:38.366Z,10.9
2022-11-14T13:16:54.601Z,10.9
2022-11-14T13:18:09.869Z,10.9
2022-11-14T13:19:26.098Z,10.9
2022-11-14T13:20:42.338Z,10.9
2022-11-14T13:21:58.579Z,10.9
2022-11-14T13:23:14.836Z,10.9
2022-11-14T13:24:31.074Z,10.9
2022-11-14T13:25:47.295Z,10.9
2022-11-14T13:27:03.555Z,10.9
2022-11-14T13:28:19.783Z,10.9
2022-11-14T13:29:36.011Z,10.9
2022-11-14T13:30:52.251Z,10.8
2022-11-14T13:32:08.494Z,10.8
2022-11-14T13:33:24.740Z,10.7
2022-11-14T13:34:39.985Z,10.7
2022-11-14T13:35:56.234Z,10.7
2022-11-14T13:37:12.482Z,10.7
2022-11-14T13:38:28.000Z,10.7
2022-11-14T13:39:44.962Z,10.7
2022-11-14T13:41:01.204Z,10.7
2022-11-14T13:42:17.417Z,10.7
2022-11-14T13:43:33.683Z,10.7
2022-11-14T13:44:49.895Z,10.7
2022-11-14T13:46:06.146Z,10.7
2022-11-14T13:47:22.382Z,10.7
2022-11-14T13:48:38.644Z,10.7
2022-11-14T13:49:54.865Z,10.7
2022-11-14T13:51:10.136Z,10.8
2022-11-14T13:52:26.375Z,10.7
2022-11-14T13:53:42.602Z,10.7
2022-11-14T13:54:58.849Z,10.7
2022-11-14T13:56:15.069Z,10.6
2022-11-14T13:57:31.326Z,10.6
2022-11-14T13:58:47.561Z,10.6
2022-11-14T14:00:03.792Z,10.5
2022-11-14T14:01:20.030Z,10.5
2022-11-14T14:02:36.290Z,10.5
2022-11-14T14:03:52.508Z,10.5
2022-11-14T14:05:08.761Z,10.5
2022-11-14T14:06:25.001Z,10.5
2022-11-14T14:07:40.238Z,10.5
2022-11-14T14:08:56.509Z,10.5
2022-11-14T14:10:12.740Z,10.5
2022-11-14T14:11:28.960Z,10.4
2022-11-14T14:12:45.209Z,10.4
2022-11-14T14:14:01.466Z,10.3
2022-11-14T14:15:17.701Z,10.3
2022-11-14T14:16:33.932Z,10.3
2022-11-14T14:17:50.168Z,10.2
2022-11-14T14:19:06.415Z,10.2
2022-11-14T14:20:22.647Z,10.2
2022-11-14T14:21:38.903Z,10.1
2022-11-14T14:22:55.115Z,10.1
2022-11-14T14:24:10.397Z,10.1
2022-11-14T14:25:26.628Z,10
2022-11-14T14:26:42.876Z,10
2022-11-14T14:27:59.100Z,9.9
2022-11-14T14:29:15.350Z,9.9
2022-11-14T14:30:31.581Z,9.8
2022-11-14T14:31:47.834Z,9.8
2022-11-14T14:33:04.070Z,9.8
2022-11-14T14:34:20.306Z,9.7
2022-11-14T14:35:36.538Z,9.7
2022-11-14T14:36:52.788Z,9.7
2022-11-14T14:38:09.022Z,9.8
2022-11-14T14:39:25.261Z,9.8
2022-11-14T14:40:41.634Z,9.8
2022-11-14T14:41:57.853Z,9.8
2022-11-14T14:43:14.095Z,9.8
2022-11-14T14:44:30.348Z,9.8
2022-11-14T14:45:46.584Z,9.7
2022-11-14T14:47:02.806Z,9.7
2022-11-14T14:48:19.047Z,9.7
2022-11-14T14:49:35.301Z,9.6
2022-11-14T14:50:51.532Z,9.5
2022-11-14T14:52:07.779Z,9.6
2022-11-14T14:53:24.030Z,9.6
2022-11-14T14:54:40.241Z,9.5
2022-11-14T14:55:56.503Z,9.5
2022-11-14T14:57:11.752Z,9.5
2022-11-14T14:58:27.994Z,9.5
2022-11-14T14:59:44.226Z,9.4
2022-11-14T15:01:00.476Z,9.4
2022-11-14T15:02:16.710Z,9.3
2022-11-14T15:03:32.934Z,9.2
2022-11-14T15:04:49.188Z,9.2
2022-11-14T15:06:05.426Z,9.1
2022-11-14T15:07:21.674Z,9.1
2022-11-14T15:08:37.923Z,9
2022-11-14T15:09:54.145Z,9.1
2022-11-14T15:11:10.378Z,9
2022-11-14T15:12:26.610Z,9
2022-11-14T15:13:41.880Z,9
2022-11-14T15:14:58.121Z,8.9
2022-11-14T15:16:14.356Z,8.9
2022-11-14T15:17:30.597Z,8.8
2022-11-14T15:18:46.853Z,8.8
2022-11-14T15:20:03.066Z,8.7
2022-11-14T15:21:18.357Z,8.7
2022-11-14T15:22:34.590Z,8.7
2022-11-14T15:23:50.817Z,8.6
2022-11-14T15:25:07.048Z,8.6
2022-11-14T15:26:23.290Z,8.6
2022-11-14T15:27:39.525Z,8.5
2022-11-14T15:28:55.778Z,8.5
2022-11-14T15:30:12.019Z,8.5
2022-11-14T15:31:28.271Z,8.4
2022-11-14T15:32:44.486Z,8.3
2022-11-14T15:34:00.753Z,8.3
2022-11-14T15:35:16.992Z,8.2
2022-11-14T15:36:33.221Z,8.2
2022-11-14T15:37:48.484Z,8.1
2022-11-14T15:39:04.715Z,8.1
2022-11-14T15:40:20.960Z,8.1
2022-11-14T15:41:37.178Z,8.1
2022-11-14T15:42:53.428Z,8
2022-11-14T15:44:09.674Z,8
2022-11-14T15:46:42.155Z,7.9
2022-11-14T15:47:58.376Z,7.9
2022-11-14T15:49:14.636Z,7.8
2022-11-14T15:50:30.862Z,7.8
2022-11-14T15:51:47.115Z,7.7
2022-11-14T15:53:03.352Z,7.7
2022-11-14T15:54:18.591Z,7.7
2022-11-14T15:55:34.837Z,7.8
2022-11-14T15:56:51.082Z,7.7
2022-11-14T15:58:07.317Z,7.7
2022-11-14T15:59:23.576Z,7.7
2022-11-14T16:00:39.805Z,7.7
2022-11-14T16:01:56.098Z,7.7
2022-11-14T16:03:12.341Z,7.6
2022-11-14T16:04:28.589Z,7.6
2022-11-14T16:05:44.819Z,7.6
2022-11-14T16:07:01.116Z,7.6
2022-11-14T16:08:17.410Z,7.6
2022-11-14T16:09:33.697Z,7.6
2022-11-14T16:10:49.020Z,7.7
2022-11-14T16:12:05.321Z,7.8
2022-11-14T16:13:21.617Z,7.9
2022-11-14T16:14:37.904Z,7.8
2022-11-14T16:15:54.186Z,7.8
2022-11-14T16:17:10.478Z,7.8
2022-11-14T16:18:26.782Z,7.8
2022-11-14T16:20:59.359Z,7.8
2022-11-14T16:22:15.653Z,7.8
2022-11-14T16:23:31.948Z,7.8
2022-11-14T16:24:48.254Z,7.8
2022-11-14T16:26:04.541Z,7.8
2022-11-14T16:27:19.847Z,7.8
2022-11-14T16:28:36.136Z,7.9
2022-11-14T16:29:52.423Z,7.8
2022-11-14T16:31:08.738Z,7.8
2022-11-14T16:32:25.028Z,7.8
2022-11-14T16:33:41.318Z,7.7
2022-11-14T16:34:57.622Z,7.7
2022-11-14T16:36:13.897Z,7.7
2022-11-14T16:37:30.193Z,7.7
2022-11-14T16:38:46.496Z,7.7
2022-11-14T16:40:02.776Z,7.7
2022-11-14T16:41:19.072Z,7.6
2022-11-14T16:42:35.372Z,7.6
2022-11-14T16:43:50.687Z,7.5
2022-11-14T16:45:06.971Z,7.5
2022-11-14T16:46:23.265Z,7.5
2022-11-14T16:47:39.556Z,7.5
2022-11-14T16:48:55.855Z,7.5
2022-11-14T16:50:12.149Z,7.5
2022-11-14T16:51:28.432Z,7.5
2022-11-14T16:52:44.737Z,7.5
2022-11-14T16:54:01.032Z,7.5
2022-11-14T16:55:17.313Z,7.4
2022-11-14T16:56:33.612Z,7.4
2022-11-14T16:57:49.908Z,7.3
2022-11-14T16:59:06.205Z,7.3
2022-11-14T17:00:21.526Z,7.3
2022-11-14T17:01:37.802Z,7.3
2022-11-14T17:02:54.094Z,7.4
2022-11-14T17:04:10.394Z,7.4
2022-11-14T17:05:26.689Z,7.4
2022-11-14T17:06:42.977Z,7.4
2022-11-14T17:07:59.277Z,7.4
2022-11-14T17:09:15.578Z,7.4
2022-11-14T17:10:31.876Z,7.3
2022-11-14T17:11:48.151Z,7.3
2022-11-14T17:13:04.448Z,7.3
2022-11-14T17:14:20.738Z,7.3
2022-11-14T17:15:37.033Z,7.3
2022-11-14T17:16:52.349Z,7.3
2022-11-14T17:18:08.635Z,7.3
2022-11-14T17:19:24.929Z,7.3
2022-11-14T17:20:41.229Z,7.3
2022-11-14T17:21:57.518Z,7.3
2022-11-14T17:23:13.816Z,7.3
2022-11-14T17:24:30.107Z,7.2
2022-11-14T17:25:46.411Z,7.2
2022-11-14T17:27:02.687Z,7.2
2022-11-14T17:28:19.003Z,7.1
2022-11-14T17:29:35.278Z,7.1
2022-11-14T17:30:51.573Z,7.1
2022-11-14T17:32:07.872Z,7.1
2022-11-14T17:33:23.173Z,7.1